createdAt,value
2022-12-13T00:02:12.618Z,15.87
2022-12-13T00:04:44.284Z,18.77
2022-12-13T00:07:12.620Z,19.47
2022-12-13T00:09:40.232Z,17.43
2022-12-13T00:12:16.375Z,18.60
2022-12-13T00:14:45.759Z,17.73
2022-12-13T00:17:13.040Z,16.80
2022-12-13T00:19:41.400Z,16.73
2022-12-13T00:22:09.823Z,15.93
2022-12-13T00:24:42.855Z,16.33
2022-12-13T00:27:15.442Z,15.00
2022-12-13T00:29:42.729Z,17.30
2022-12-13T00:32:12.113Z,16.47
2022-12-13T00:34:41.412Z,18.23
2022-12-13T00:37:10.623Z,15.00
2022-12-13T00:39:47.984Z,19.50
2022-12-13T00:42:16.449Z,15.93
2022-12-13T00:44:54.685Z,17.80
2022-12-13T00:47:23.931Z,18.10
2022-12-13T00:50:01.496Z,18.57
2022-12-13T00:52:29.354Z,16.63
2022-12-13T00:54:57.534Z,16.33
2022-12-13T00:57:26.922Z,16.77
2022-12-13T00:59:55.143Z,15.80
2022-12-13T01:02:23.331Z,17.87
2022-12-13T01:04:52.804Z,16.43
2022-12-13T01:07:21.064Z,18.13
2022-12-13T01:09:53.706Z,18.50
2022-12-13T01:12:22.114Z,17.30
2022-12-13T01:14:55.785Z,18.97
2022-12-13T01:17:24.313Z,17.20
2022-12-13T01:19:51.507Z,17.13
2022-12-13T01:22:19.696Z,17.20
2022-12-13T01:24:46.933Z,16.47
2022-12-13T01:27:14.233Z,18.17
2022-12-13T01:29:47.693Z,19.10
2022-12-13T01:32:16.421Z,17.63
2022-12-13T01:34:43.670Z,18.67
2022-12-13T01:37:26.101Z,18.63
2022-12-13T01:39:53.674Z,15.47
2022-12-13T01:42:27.035Z,16.97
2022-12-13T01:45:22.115Z,17.83
2022-12-13T01:48:02.670Z,19.90
2022-12-13T01:50:34.852Z,18.90
2022-12-13T01:53:07.249Z,19.47
2022-12-13T01:55:41.818Z,19.30
2022-12-13T01:58:18.840Z,17.80
2022-12-13T02:00:48.804Z,19.93
2022-12-13T02:03:21.251Z,18.47
2022-12-13T02:06:03.997Z,18.80
2022-12-13T02:08:35.773Z,20.87
2022-12-13T02:11:05.204Z,20.37
2022-12-13T02:13:32.413Z,19.43
2022-12-13T02:16:10.310Z,18.83
2022-12-13T02:18:47.511Z,18.37
2022-12-13T02:21:53.883Z,22.53
2022-12-13T02:24:33.254Z,16.13
2022-12-13T02:27:30.599Z,19.37
2022-12-13T02:30:19.922Z,22.80
2022-12-13T02:33:04.833Z,20.67
2022-12-13T02:36:19.713Z,18.40
2022-12-13T02:39:10.630Z,20.57
2022-12-13T02:41:51.105Z,21.37
2022-12-13T02:44:26.192Z,22.47
2022-12-13T02:47:06.950Z,25.57
2022-12-13T02:49:59.723Z,21.57
2022-12-13T02:52:29.854Z,21.10
2022-12-13T02:54:59.060Z,21.53
2022-12-13T02:57:29.354Z,21.63
2022-12-13T03:00:03.350Z,26.70
2022-12-13T03:02:38.800Z,20.27
2022-12-13T03:06:03.755Z,19.67
2022-12-13T03:09:11.755Z,19.00
2022-12-13T03:12:05.453Z,21.43
2022-12-13T03:14:36.691Z,20.07
2022-12-13T03:17:09.050Z,22.90
2022-12-13T03:19:37.734Z,20.63
2022-12-13T03:22:07.280Z,22.63
2022-12-13T03:24:35.587Z,20.63
2022-12-13T03:27:03.037Z,19.47
2022-12-13T03:29:30.530Z,18.87
2022-12-13T03:32:03.895Z,21.40
2022-12-13T03:34:44.214Z,19.97
2022-12-13T03:37:22.203Z,20.60
2022-12-13T03:39:50.330Z,17.40
2022-12-13T03:42:18.170Z,18.63
2022-12-13T03:44:45.573Z,17.50
2022-12-13T03:47:17.671Z,17.43
2022-12-13T03:49:54.075Z,22.27
2022-12-13T03:52:22.033Z,17.67
2022-12-13T03:54:52.400Z,19.73
2022-12-13T03:57:19.930Z,20.43
2022-12-13T03:59:50.647Z,20.60
2022-12-13T04:02:30.939Z,18.30
2022-12-13T04:05:12.516Z,18.43
2022-12-13T04:07:40.610Z,16.57
2022-12-13T04:10:25.910Z,19.20
2022-12-13T04:13:13.679Z,17.17
2022-12-13T04:15:50.924Z,17.47
2022-12-13T04:18:20.381Z,16.53
2022-12-13T04:21:00.953Z,16.60
2022-12-13T04:23:28.250Z,16.20
2022-12-13T04:25:55.591Z,15.70
2022-12-13T04:28:23.272Z,13.17
2022-12-13T04:30:54.735Z,17.30
2022-12-13T04:33:23.435Z,15.27
2022-12-13T04:35:51.579Z,15.60
2022-12-13T04:38:22.934Z,18.30
2022-12-13T04:40:50.270Z,17.90
2022-12-13T04:43:18.550Z,18.23
2022-12-13T04:45:46.969Z,17.30
2022-12-13T04:48:30.789Z,18.80
2022-12-13T04:51:01.769Z,18.23
2022-12-13T04:53:30.490Z,19.33
2022-12-13T04:55:59.737Z,24.47
2022-12-13T04:58:30.263Z,20.30
2022-12-13T05:00:58.545Z,15.53
2022-12-13T05:03:26.304Z,20.83
2022-12-13T05:05:54.670Z,19.40
2022-12-13T05:08:23.987Z,18.53
2022-12-13T05:10:54.243Z,15.53
2022-12-13T05:13:21.633Z,15.70
2022-12-13T05:15:58.955Z,15.13
2022-12-13T05:18:29.388Z,16.97
2022-12-13T05:21:03.876Z,18.53
2022-12-13T05:23:31.954Z,17.93
2022-12-13T05:26:00.293Z,19.00
2022-12-13T05:28:30.893Z,28.30
2022-12-13T05:31:22.931Z,24.27
2022-12-13T05:33:52.955Z,27.17
2022-12-13T05:36:25.670Z,27.07
2022-12-13T05:38:53.389Z,72.03
2022-12-13T05:41:25.189Z,73.50
2022-12-13T05:43:52.660Z,178.73
2022-12-13T05:46:22.012Z,175.33
2022-12-13T05:48:50.274Z,110.47
2022-12-13T05:51:18.581Z,104.70
2022-12-13T05:53:51.548Z,49.23
2022-12-13T05:56:27.890Z,29.83
2022-12-13T05:58:56.333Z,30.33
2022-12-13T06:01:24.671Z,38.03
2022-12-13T06:03:53.061Z,37.17
2022-12-13T06:06:21.611Z,34.30
2022-12-13T06:08:49.921Z,28.67
2022-12-13T06:11:31.390Z,24.97
2022-12-13T06:14:01.157Z,15.87
2022-12-13T06:16:32.848Z,17.60
2022-12-13T06:19:04.216Z,16.83
2022-12-13T06:21:46.320Z,17.83
2022-12-13T06:24:18.173Z,17.97
2022-12-13T06:26:52.190Z,20.27
2022-12-13T06:29:23.234Z,23.47
2022-12-13T06:32:01.981Z,24.57
2022-12-13T06:34:34.612Z,24.63
2022-12-13T06:37:07.346Z,24.50
2022-12-13T06:39:35.924Z,22.93
2022-12-13T06:42:14.353Z,28.20
2022-12-13T06:44:55.887Z,18.60
2022-12-13T06:47:31.858Z,18.37
2022-12-13T06:50:05.388Z,23.40
2022-12-13T06:52:34.690Z,27.60
2022-12-13T06:55:02.253Z,31.03
2022-12-13T06:57:34.212Z,36.03
2022-12-13T07:00:03.930Z,101.67
2022-12-13T07:02:32.927Z,485.60
2022-12-13T07:05:01.213Z,170.53
2022-12-13T07:07:28.483Z,62.87
2022-12-13T07:09:57.682Z,72.40
2022-12-13T07:12:26.000Z,60.50
2022-12-13T07:14:53.565Z,37.40
2022-12-13T07:17:31.888Z,36.70
2022-12-13T07:20:04.783Z,37.33
2022-12-13T07:22:35.029Z,37.40
2022-12-13T07:25:05.401Z,41.13
2022-12-13T07:27:33.400Z,39.00
2022-12-13T07:30:01.953Z,66.03
2022-12-13T07:32:29.249Z,44.63
2022-12-13T07:34:56.474Z,38.77
2022-12-13T07:37:29.871Z,37.97
2022-12-13T07:40:04.073Z,38.57
2022-12-13T07:42:34.305Z,41.67
2022-12-13T07:45:02.028Z,31.20
2022-12-13T07:47:34.944Z,124.20
2022-12-13T07:50:03.205Z,78.00
2022-12-13T07:52:32.324Z,46.63
2022-12-13T07:54:59.553Z,29.87
2022-12-13T07:57:26.847Z,28.60
2022-12-13T07:59:54.091Z,73.33
2022-12-13T08:02:22.419Z,193.37
2022-12-13T08:04:54.779Z,158.60
2022-12-13T08:07:22.941Z,91.77
2022-12-13T08:09:53.179Z,61.30
2022-12-13T08:12:22.524Z,48.63
2022-12-13T08:14:53.150Z,47.30
2022-12-13T08:17:20.987Z,46.37
2022-12-13T08:19:49.373Z,44.47
2022-12-13T08:22:16.674Z,50.50
2022-12-13T08:24:52.254Z,47.47
2022-12-13T08:27:20.463Z,46.03
2022-12-13T08:29:48.736Z,45.37
2022-12-13T08:32:16.087Z,53.43
2022-12-13T08:34:45.882Z,51.63
2022-12-13T08:37:14.435Z,52.70
2022-12-13T08:39:42.978Z,43.70
2022-12-13T08:42:16.286Z,43.00
2022-12-13T08:44:53.864Z,42.73
2022-12-13T08:47:26.012Z,39.63
2022-12-13T08:50:02.714Z,41.00
2022-12-13T08:52:39.259Z,44.90
2022-12-13T08:55:10.737Z,34.63
2022-12-13T08:57:40.916Z,36.37
2022-12-13T09:00:13.015Z,36.27
2022-12-13T09:02:41.387Z,39.10
2022-12-13T09:05:10.788Z,30.70
2022-12-13T09:07:41.192Z,31.37
2022-12-13T09:10:27.383Z,30.63
2022-12-13T09:13:01.337Z,30.97
2022-12-13T09:15:33.983Z,34.53
2022-12-13T09:18:04.844Z,30.33
2022-12-13T09:20:40.543Z,30.80
2022-12-13T09:23:14.193Z,33.00
2022-12-13T09:26:05.687Z,33.93
2022-12-13T09:28:37.333Z,33.10
2022-12-13T09:31:09.530Z,25.77
2022-12-13T09:33:41.508Z,28.37
2022-12-13T09:36:17.462Z,29.87
2022-12-13T09:38:46.967Z,22.87
2022-12-13T09:41:28.571Z,24.73
2022-12-13T09:44:31.151Z,22.93
2022-12-13T09:47:13.517Z,26.70
2022-12-13T09:49:53.111Z,25.50
2022-12-13T09:52:25.821Z,21.10
2022-12-13T09:54:56.539Z,22.27
2022-12-13T09:57:33.548Z,24.77
2022-12-13T10:00:08.700Z,19.40
2022-12-13T10:02:45.445Z,19.90
2022-12-13T10:05:35.750Z,20.53
2022-12-13T10:08:15.467Z,21.33
2022-12-13T10:10:44.080Z,22.43
2022-12-13T10:13:16.990Z,21.77
2022-12-13T10:15:50.613Z,23.07
2022-12-13T10:18:29.321Z,19.90
2022-12-13T10:20:57.936Z,18.70
2022-12-13T10:23:47.030Z,17.23
2022-12-13T10:26:23.774Z,19.77
2022-12-13T10:29:03.301Z,16.63
2022-12-13T10:31:30.783Z,16.43
2022-12-13T10:34:03.598Z,18.50
2022-12-13T10:36:32.789Z,18.70
2022-12-13T10:39:03.406Z,14.70
2022-12-13T10:41:38.432Z,15.67
2022-12-13T10:44:24.337Z,16.60
2022-12-13T10:47:18.135Z,17.63
2022-12-13T10:49:59.089Z,16.93
2022-12-13T10:52:31.954Z,16.37
2022-12-13T10:55:22.796Z,19.53
2022-12-13T10:57:57.565Z,17.63
2022-12-13T11:00:35.003Z,19.67
2022-12-13T11:03:02.300Z,18.33
2022-12-13T11:05:35.280Z,18.50
2022-12-13T11:08:26.619Z,15.50
2022-12-13T11:11:03.613Z,18.20
2022-12-13T11:13:38.708Z,17.40
2022-12-13T11:16:27.445Z,14.23
2022-12-13T11:19:05.255Z,14.27
2022-12-13T11:21:38.810Z,14.57
2022-12-13T11:24:30.010Z,14.00
2022-12-13T11:27:02.283Z,15.97
2022-12-13T11:29:57.181Z,14.27
2022-12-13T11:32:40.270Z,16.27
2022-12-13T11:35:13.693Z,12.97
2022-12-13T11:37:52.913Z,17.03
2022-12-13T11:40:29.974Z,15.10
2022-12-13T11:43:09.984Z,16.10
2022-12-13T11:45:49.695Z,12.50
2022-12-13T11:48:22.455Z,12.90
2022-12-13T11:50:56.748Z,11.10
2022-12-13T11:53:56.558Z,12.63
2022-12-13T11:56:32.552Z,10.47
2022-12-13T11:59:16.156Z,9.83
2022-12-13T12:01:55.724Z,8.70
2022-12-13T12:04:43.863Z,7.83
2022-12-13T12:10:18.304Z,8.60
2022-12-13T12:12:56.562Z,7.28
2022-12-13T12:15:27.012Z,7.72
2022-12-13T12:17:56.545Z,8.33
2022-12-13T12:20:49.007Z,10.47
2022-12-13T12:23:37.402Z,10.10
2022-12-13T12:26:18.107Z,8.33
2022-12-13T12:29:29.878Z,9.30
2022-12-13T12:32:15.911Z,11.00
2022-12-13T12:35:23.656Z,10.47
2022-12-13T12:37:54.345Z,9.13
2022-12-13T12:41:07.263Z,14.30
2022-12-13T12:43:42.005Z,9.60
2022-12-13T12:47:09.095Z,12.33
2022-12-13T12:49:32.221Z,8.73
2022-12-13T12:52:13.307Z,9.30
2022-12-13T12:54:51.337Z,10.33
2022-12-13T12:57:29.800Z,11.27
2022-12-13T13:00:24.237Z,13.33
2022-12-13T13:03:17.237Z,13.10
2022-12-13T13:06:00.125Z,9.60
2022-12-13T13:08:38.046Z,8.50
2022-12-13T13:11:24.637Z,8.37
2022-12-13T13:14:01.879Z,9.07
2022-12-13T13:16:35.788Z,8.50
2022-12-13T13:19:11.367Z,9.20
2022-12-13T13:22:01.619Z,8.77
2022-12-13T13:24:34.974Z,7.87
2022-12-13T13:27:11.193Z,10.73
2022-12-13T13:29:43.182Z,8.20
2022-12-13T13:32:29.019Z,8.43
2022-12-13T13:35:33.508Z,9.73
2022-12-13T13:38:06.443Z,6.90
2022-12-13T13:40:34.888Z,7.33
2022-12-13T13:43:11.307Z,8.77
2022-12-13T13:45:59.420Z,8.67
2022-12-13T13:49:00.511Z,6.57
2022-12-13T13:52:26.256Z,11.30
2022-12-13T13:55:08.943Z,9.47
2022-12-13T13:58:11.577Z,7.97
2022-12-13T14:00:57.446Z,8.63
2022-12-13T14:03:58.154Z,9.33
2022-12-13T14:06:54.716Z,9.50
2022-12-13T14:10:12.884Z,8.87
2022-12-13T14:13:17.417Z,9.23
2022-12-13T14:16:12.102Z,8.90
2022-12-13T14:18:59.824Z,9.27
2022-12-13T14:21:30.841Z,13.63
2022-12-13T14:24:32.338Z,15.60
2022-12-13T14:27:02.625Z,18.87
2022-12-13T14:29:48.542Z,18.17
2022-12-13T14:32:33.056Z,15.73
2022-12-13T14:35:24.939Z,18.43
2022-12-13T14:38:00.985Z,24.93
2022-12-13T14:40:38.293Z,47.57
2022-12-13T14:43:06.221Z,22.40
2022-12-13T14:45:36.925Z,20.37
2022-12-13T14:48:12.153Z,18.87
2022-12-13T14:50:44.197Z,20.30
2022-12-13T14:53:39.001Z,18.73
2022-12-13T14:56:09.934Z,21.73
2022-12-13T14:58:39.410Z,22.43
2022-12-13T15:01:24.896Z,35.67
2022-12-13T15:04:27.377Z,40.27
2022-12-13T15:07:08.123Z,37.67
2022-12-13T15:09:44.209Z,23.00
2022-12-13T15:12:24.799Z,24.77
2022-12-13T15:15:05.514Z,19.47
2022-12-13T15:17:39.420Z,22.50
2022-12-13T15:20:25.098Z,16.63
2022-12-13T15:23:06.274Z,21.00
2022-12-13T15:25:37.758Z,16.10
2022-12-13T15:28:08.285Z,15.33
2022-12-13T15:30:37.118Z,14.67
2022-12-13T15:33:26.307Z,18.73
2022-12-13T15:36:24.630Z,15.97
2022-12-13T15:38:55.840Z,15.20
2022-12-13T15:41:45.333Z,13.83
2022-12-13T15:44:24.925Z,12.93
2022-12-13T15:47:03.342Z,11.20
2022-12-13T15:49:33.325Z,12.57
2022-12-13T15:52:06.436Z,13.40
2022-12-13T15:54:34.450Z,14.40
2022-12-13T15:57:11.436Z,12.27
2022-12-13T15:59:40.640Z,12.47
2022-12-13T16:02:20.983Z,13.90
2022-12-13T16:04:49.424Z,13.73
2022-12-13T16:07:38.408Z,17.13
2022-12-13T16:10:09.058Z,13.87
2022-12-13T16:12:47.742Z,13.67
2022-12-13T16:15:29.260Z,14.50
2022-12-13T16:18:13.448Z,16.37
2022-12-13T16:20:44.264Z,20.80
2022-12-13T16:23:26.728Z,24.73
2022-12-13T16:25:56.081Z,22.40
2022-12-13T16:28:25.977Z,15.40
2022-12-13T16:30:53.816Z,17.47
2022-12-13T16:33:27.200Z,19.63
2022-12-13T16:35:56.112Z,15.43
2022-12-13T16:38:27.408Z,14.90
2022-12-13T16:41:00.069Z,13.27
2022-12-13T16:43:46.779Z,12.80
2022-12-13T16:47:17.021Z,14.50
2022-12-13T16:49:16.070Z,12.60
2022-12-13T16:51:48.026Z,13.77
2022-12-13T16:54:17.635Z,12.60
2022-12-13T16:56:45.319Z,13.57
2022-12-13T16:59:18.480Z,12.13
2022-12-13T17:01:46.832Z,13.20
2022-12-13T17:04:21.007Z,14.67
2022-12-13T17:06:51.137Z,18.57
2022-12-13T17:09:24.262Z,18.20
2022-12-13T17:11:51.649Z,16.33
2022-12-13T17:14:19.010Z,18.07
2022-12-13T17:16:46.408Z,24.60
2022-12-13T17:19:15.939Z,26.10
2022-12-13T17:21:44.192Z,25.43
2022-12-13T17:24:11.386Z,22.30
2022-12-13T17:26:39.694Z,28.60
2022-12-13T17:29:07.151Z,34.67
2022-12-13T17:31:35.964Z,42.60
2022-12-13T17:34:05.476Z,42.87
2022-12-13T17:36:32.896Z,56.73
2022-12-13T17:39:01.251Z,50.87
2022-12-13T17:41:28.542Z,31.63
2022-12-13T17:44:00.869Z,25.30
2022-12-13T17:46:28.186Z,18.53
2022-12-13T17:48:55.514Z,15.60
2022-12-13T17:51:23.874Z,25.67
2022-12-13T17:53:51.182Z,16.80
2022-12-13T17:56:19.904Z,15.97
2022-12-13T17:58:48.406Z,14.70
2022-12-13T18:01:22.505Z,17.70
2022-12-13T18:03:56.407Z,23.87
2022-12-13T18:06:25.474Z,16.63
2022-12-13T18:08:52.717Z,14.50
2022-12-13T18:11:36.172Z,18.43
2022-12-13T18:14:07.424Z,25.70
2022-12-13T18:16:38.686Z,27.40
2022-12-13T18:19:09.075Z,29.27
2022-12-13T18:21:37.293Z,20.40
2022-12-13T18:24:07.169Z,24.10
2022-12-13T18:26:34.646Z,29.27
2022-12-13T18:29:03.264Z,24.10
2022-12-13T18:31:32.187Z,26.73
2022-12-13T18:34:00.426Z,30.87
2022-12-13T18:36:27.783Z,27.33
2022-12-13T18:38:55.073Z,26.47
2022-12-13T18:41:25.036Z,20.47
2022-12-13T18:44:02.264Z,21.10
2022-12-13T18:46:37.017Z,23.83
2022-12-13T18:49:06.652Z,23.77
2022-12-13T18:51:43.321Z,20.93
2022-12-13T18:54:10.735Z,20.43
2022-12-13T18:56:38.983Z,19.93
2022-12-13T18:59:14.564Z,21.10
2022-12-13T19:01:42.518Z,20.20
2022-12-13T19:04:10.873Z,20.53
2022-12-13T19:06:38.747Z,19.10
2022-12-13T19:09:07.472Z,21.93
2022-12-13T19:11:36.994Z,21.30
2022-12-13T19:14:05.713Z,18.93
2022-12-13T19:16:42.316Z,19.10
2022-12-13T19:19:12.636Z,20.63
2022-12-13T19:21:40.877Z,18.47
2022-12-13T19:24:11.107Z,19.80
2022-12-13T19:26:39.558Z,22.90
2022-12-13T19:29:07.140Z,22.10
2022-12-13T19:31:37.639Z,20.00
2022-12-13T19:34:11.052Z,21.50
2022-12-13T19:36:46.372Z,21.00
2022-12-13T19:39:22.301Z,20.73
2022-12-13T19:41:51.806Z,20.53
2022-12-13T19:44:21.457Z,22.20
2022-12-13T19:46:48.709Z,25.50
2022-12-13T19:49:17.894Z,21.90
2022-12-13T19:51:46.293Z,24.33
2022-12-13T19:54:14.492Z,22.93
2022-12-13T19:56:43.153Z,18.63
2022-12-13T19:59:11.452Z,24.60
2022-12-13T20:01:38.797Z,29.90
2022-12-13T20:04:06.248Z,23.77
2022-12-13T20:06:34.328Z,28.73
2022-12-13T20:09:03.140Z,29.17
2022-12-13T20:11:32.342Z,26.83
2022-12-13T20:14:00.787Z,25.73
2022-12-13T20:16:29.515Z,24.33
2022-12-13T20:19:00.083Z,24.13
2022-12-13T20:21:30.067Z,22.93
2022-12-13T20:23:58.207Z,23.93
2022-12-13T20:26:29.496Z,25.90
2022-12-13T20:28:59.686Z,26.10
2022-12-13T20:31:30.580Z,24.60
2022-12-13T20:33:59.938Z,26.73
2022-12-13T20:36:29.467Z,23.23
2022-12-13T20:39:01.658Z,24.63
2022-12-13T20:41:31.827Z,24.87
2022-12-13T20:44:00.574Z,26.37
2022-12-13T20:46:31.464Z,26.67
2022-12-13T20:49:02.655Z,26.20
2022-12-13T20:51:31.975Z,27.40
2022-12-13T20:53:59.849Z,23.57
2022-12-13T20:56:29.721Z,27.63
2022-12-13T20:58:57.063Z,28.13
2022-12-13T21:01:26.013Z,24.20
2022-12-13T21:03:55.382Z,26.03
2022-12-13T21:06:23.688Z,23.70
2022-12-13T21:08:52.810Z,26.33
2022-12-13T21:11:25.498Z,23.87
2022-12-13T21:14:15.166Z,25.70
2022-12-13T21:16:53.705Z,24.47
2022-12-13T21:19:26.979Z,29.57
2022-12-13T21:21:56.772Z,27.00
2022-12-13T21:24:27.048Z,22.43
2022-12-13T21:26:56.744Z,27.03
2022-12-13T21:29:24.578Z,28.13
2022-12-13T21:31:53.418Z,29.23
2022-12-13T21:34:24.074Z,28.73
2022-12-13T21:36:52.749Z,22.93
2022-12-13T21:39:29.463Z,27.80
2022-12-13T21:41:57.312Z,26.60
2022-12-13T21:44:25.722Z,21.83
2022-12-13T21:47:11.957Z,27.03
2022-12-13T21:49:41.436Z,24.37
2022-12-13T21:52:08.677Z,25.07
2022-12-13T21:54:35.846Z,25.20
2022-12-13T21:57:22.522Z,42.63
2022-12-13T21:59:50.772Z,45.93
2022-12-13T22:02:19.642Z,50.97
2022-12-13T22:04:52.752Z,44.67
2022-12-13T22:07:25.516Z,33.83
2022-12-13T22:09:54.014Z,31.80
2022-12-13T22:12:25.297Z,30.20
2022-12-13T22:14:53.445Z,26.50
2022-12-13T22:17:26.992Z,30.70
2022-12-13T22:19:58.758Z,28.47
2022-12-13T22:22:27.274Z,24.93
2022-12-13T22:24:54.516Z,28.67
2022-12-13T22:27:24.463Z,25.67
2022-12-13T22:29:53.305Z,27.97
2022-12-13T22:32:21.557Z,28.43
2022-12-13T22:34:49.307Z,27.43
2022-12-13T22:37:17.517Z,28.90
2022-12-13T22:39:45.713Z,26.87
2022-12-13T22:42:12.961Z,28.90
2022-12-13T22:44:41.193Z,25.83
2022-12-13T22:47:08.455Z,26.37
2022-12-13T22:49:37.880Z,27.43
2022-12-13T22:52:05.441Z,30.40
2022-12-13T22:54:32.747Z,27.37
2022-12-13T22:56:59.994Z,28.37
2022-12-13T22:59:28.268Z,27.53
2022-12-13T23:02:02.207Z,27.33
2022-12-13T23:04:33.095Z,28.93
2022-12-13T23:07:01.638Z,28.30
2022-12-13T23:09:28.971Z,24.80
2022-12-13T23:12:14.798Z,28.87
2022-12-13T23:14:42.136Z,30.37
2022-12-13T23:17:09.373Z,24.93
2022-12-13T23:19:49.559Z,29.03
2022-12-13T23:22:23.944Z,29.57
2022-12-13T23:24:52.528Z,26.47
2022-12-13T23:27:23.076Z,25.37
2022-12-13T23:29:50.492Z,26.80
2022-12-13T23:32:17.992Z,29.63
2022-12-13T23:34:47.374Z,25.30
2022-12-13T23:37:16.792Z,27.90
2022-12-13T23:39:45.034Z,26.27
2022-12-13T23:42:12.193Z,27.27
2022-12-13T23:44:40.455Z,28.07
2022-12-13T23:47:08.812Z,26.63
2022-12-13T23:49:36.033Z,26.77
2022-12-13T23:52:04.380Z,26.23
2022-12-13T23:54:31.538Z,28.30
2022-12-13T23:56:58.997Z,24.10
2022-12-13T23:59:28.247Z,30.83
